Lizton, IN (46149)

6:11 AM EDT on April 25, 2018 (GMT -0400)
Woody Warehouse Nursery, Inc. | | Change Station
Active Advisory: Special Statement

Elev 968 ft 39.89 °N, 86.58 °W | Updated 10 minutes ago

Mostly Cloudy
Mostly Cloudy
47.6 °F
Feels Like 46 °F
N
4.0
Wind Variable Wind from West
Gusts 8.0 mph

Today
High -- | Low -- °F
--% Chance of Precip.
Yesterday
High -- | Low -- °F
Precip. -- in
Pressure 29.93 in
Visibility 5.0 miles
Clouds Few 2000 ft
Scattered Clouds 2700 ft
Mostly Cloudy 3600 ft
Windchill 46 °F
Dew Point 46 °F
Humidity 95%
Rainfall 0.00 in
Snow Depth Not available.
6:54 AM 8:34 PM
Waxing Gibbous, 77% visible
METAR KEYE 250953Z AUTO 33006KT 5SM BR FEW020 SCT027 BKN036 10/09 A2993 RMK AO2 SLP135 T01000089
Pressure 29.93 in
Visibility 5.0 miles
Clouds Few 2000 ft
Scattered Clouds 2700 ft
Mostly Cloudy 3600 ft
Windchill 46 °F
Dew Point 46 °F
Humidity 95%
Rainfall 0.00 in
Snow Depth Not available.
6:54 AM 8:34 PM
Waxing Gibbous, 77% visible
METAR KEYE 250953Z AUTO 33006KT 5SM BR FEW020 SCT027 BKN036 10/09 A2993 RMK AO2 SLP135 T01000089

Get Your Daily Forecast Email!

Thanks for signing up!

Be on the lookout for a verification email in your inbox.

You'll start receiving severe weather alerts in your inbox..

×

10-Day Weather Forecast

Almanac

Astronomy

Apr. 25, 2018 Rise Set
Actual Time
Civil Twilight
Nautical Twilight
Astronomical Twilight
Moon
Length of Visible Light
Length of Day
Tomorrow will be .
, % of the Moon is Illuminated

Today's Extremes

State Highs State Lows

Community

WunderPhotos

Category 6

Welcome to Category 6. This is the collective home for Weather Underground's featured writeups by Dr. Jeff Masters (right), Bob Henson (left), Chris Burt, and other regular contributors.

Nearby

Air Quality

  Air Quality AQ Index Pollutant
Not available.

Snow Depth

Station Depth Elevation

Earthquake Activity

City Distance Mag. Time & Date
Minimum magnitude displayed is 2.5.

Coastal Water Temperatures

Place Temperature

Stations

Nearby Weather Stations

Station Location Temp. Windchill Dew Point Humidity Wind Precip. Elev Updated Type
                   

Watches & Warnings

Special Statement
Issued: 6:03 AM EDT Apr. 25, 2018 – National Weather Service


... Patchy fog through 9 am...

Sudden reductions in the visibility to a mile or less or possible
through 9 am, especially in low lying areas and near water
sources.

Drive carefully and be alert to sudden reductions in the visibility.
Leave plenty of stopping distance between you and the car in front
of you.


603 am EDT Wed Apr 25 2018


... Patchy fog through 9 am...

Sudden reductions in the visibility to a mile or less or possible
through 9 am, especially in low lying areas and near water
sources.

Drive carefully and be alert to sudden reductions in the visibility.
Leave plenty of stopping distance between you and the car in front
of you.